Time;durP1;ratioP1;P1;durP2;ratioP2;P2;SDS_P1;SDS_P2;PMS_P1;PMS_P2;Temp;Humidity;BMP_temperature;BMP_pressure;BME280_temperature;BME280_humidity;BME280_pressure;Samples;Min_cycle;Max_cycle;Signal;HPM_P1;HPM_P2
2022/09/15 00:01:06;;;;;;;13.32;5.72;;;;;;;;;;5094047;28;20027;-82
2022/09/15 00:03:33;;;;;;;14.80;5.97;;;;;;;;;;5075612;28;20028;-82
2022/09/15 00:05:59;;;;;;;10.07;5.72;;;;;;;;;;5094107;28;20113;-82
2022/09/15 00:08:25;;;;;;;14.13;5.35;;;;;;;;;;5075338;28;20427;-82
2022/09/15 00:10:53;;;;;;;12.68;6.55;;;;;;;;;;5093782;28;20558;-82
2022/09/15 00:13:19;;;;;;;9.45;6.13;;;;;;;;;;5093366;28;20108;-82
2022/09/15 00:15:46;;;;;;;8.18;5.25;;;;;;;;;;5093513;28;20020;-82
2022/09/15 00:18:12;;;;;;;11.32;6.20;;;;;;;;;;5075196;28;20149;-82
2022/09/15 00:20:42;;;;;;;14.48;6.70;;;;;;;;;;5093749;28;20028;-82
2022/09/15 00:23:09;;;;;;;9.20;5.60;;;;;;;;;;5093757;28;20358;-82
2022/09/15 00:25:40;;;;;;;14.10;7.38;;;;;;;;;;5093427;28;20092;-82
2022/09/15 00:28:06;;;;;;;12.00;6.30;;;;;;;;;;5075258;28;20086;-82
2022/09/15 00:30:32;;;;;;;9.15;6.22;;;;;;;;;;5074937;28;20020;-82
2022/09/15 00:32:58;;;;;;;11.95;7.28;;;;;;;;;;5093328;28;20828;-82
2022/09/15 00:35:24;;;;;;;9.35;4.90;;;;;;;;;;5093154;28;20069;-82
2022/09/15 00:37:50;;;;;;;11.18;5.97;;;;;;;;;;5074803;28;20028;-82
2022/09/15 00:40:16;;;;;;;10.13;6.28;;;;;;;;;;5093142;28;20028;-82
2022/09/15 00:42:42;;;;;;;9.43;5.47;;;;;;;;;;5093343;28;20024;-82
2022/09/15 00:45:13;;;;;;;10.23;5.68;;;;;;;;;;5093206;28;20366;-82
2022/09/15 00:47:39;;;;;;;9.20;5.22;;;;;;;;;;5092724;28;20092;-82
2022/09/15 00:50:10;;;;;;;10.88;6.40;;;;;;;;;;5091979;28;20023;-82
2022/09/15 00:52:48;;;;;;;17.90;6.35;;;;;;;;;;5092895;28;20359;-82
2022/09/15 00:55:14;;;;;;;14.15;6.40;;;;;;;;;;5074854;28;20166;-82
2022/09/15 00:57:53;;;;;;;15.05;5.93;;;;;;;;;;5074924;28;20023;-82
2022/09/15 01:00:20;;;;;;;9.93;6.22;;;;;;;;;;5092847;28;20023;-82
2022/09/15 01:02:47;;;;;;;12.48;6.20;;;;;;;;;;5074643;28;20020;-82
2022/09/15 01:05:14;;;;;;;11.27;6.30;;;;;;;;;;5092870;28;20027;-82
2022/09/15 01:07:43;;;;;;;13.43;6.45;;;;;;;;;;5092575;28;20036;-82
2022/09/15 01:10:12;;;;;;;11.30;5.95;;;;;;;;;;5092511;28;20027;-82
2022/09/15 01:12:39;;;;;;;8.80;5.78;;;;;;;;;;5092534;28;20020;-82
2022/09/15 01:15:06;;;;;;;13.82;6.40;;;;;;;;;;5092817;28;20197;-82
2022/09/15 01:17:44;;;;;;;14.80;6.70;;;;;;;;;;5074314;28;20071;-82
2022/09/15 01:20:37;;;;;;;13.13;6.78;;;;;;;;;;5093003;28;20154;-82
2022/09/15 01:23:09;;;;;;;11.05;6.30;;;;;;;;;;5054095;28;20358;-82
2022/09/15 01:25:54;;;;;;;13.95;7.30;;;;;;;;;;5092420;28;20081;-82
2022/09/15 01:28:34;;;;;;;13.38;6.63;;;;;;;;;;5093017;28;20062;-82
2022/09/15 01:31:24;;;;;;;11.13;5.75;;;;;;;;;;5092676;28;20047;-82
2022/09/15 01:34:06;;;;;;;10.38;6.55;;;;;;;;;;5079179;28;20181;-82
2022/09/15 01:36:52;;;;;;;11.93;6.85;;;;;;;;;;5092477;28;20021;-82
2022/09/15 01:39:23;;;;;;;14.43;6.60;;;;;;;;;;5092074;28;20016;-82
2022/09/15 01:41:52;;;;;;;10.10;6.03;;;;;;;;;;5092241;28;20023;-82
2022/09/15 01:44:23;;;;;;;13.02;6.43;;;;;;;;;;5092187;28;20024;-82
2022/09/15 01:46:52;;;;;;;9.65;6.28;;;;;;;;;;5092431;28;20470;-82
2022/09/15 01:49:20;;;;;;;9.77;6.07;;;;;;;;;;5073910;28;20035;-82
2022/09/15 01:51:48;;;;;;;12.75;6.18;;;;;;;;;;5073986;28;20032;-82
2022/09/15 01:54:14;;;;;;;10.80;6.13;;;;;;;;;;5092152;28;20020;-82
2022/09/15 01:56:41;;;;;;;12.15;6.47;;;;;;;;;;5092075;28;20103;-82
2022/09/15 01:59:08;;;;;;;11.05;6.25;;;;;;;;;;5092290;28;20409;-82
2022/09/15 02:01:48;;;;;;;11.82;7.20;;;;;;;;;;5074368;28;20024;-82
2022/09/15 02:04:22;;;;;;;10.18;6.50;;;;;;;;;;5077544;28;20024;-82
2022/09/15 02:06:54;;;;;;;11.32;6.68;;;;;;;;;;5078243;28;20031;-82
2022/09/15 02:09:22;;;;;;;8.65;6.13;;;;;;;;;;5096449;28;20035;-82
2022/09/15 02:12:21;;;;;;;10.27;5.95;;;;;;;;;;5095918;28;20020;-82
2022/09/15 02:14:54;;;;;;;15.02;6.22;;;;;;;;;;5037620;28;20043;-82
2022/09/15 02:17:22;;;;;;;10.60;6.40;;;;;;;;;;5075386;28;20028;-82
2022/09/15 02:19:54;;;;;;;12.38;5.78;;;;;;;;;;5075382;28;20101;-82
2022/09/15 02:22:25;;;;;;;10.25;5.75;;;;;;;;;;5057262;28;20039;-82
2022/09/15 02:24:58;;;;;;;10.18;6.70;;;;;;;;;;5057558;28;20024;-82
2022/09/15 02:27:26;;;;;;;10.48;6.35;;;;;;;;;;5057351;28;20024;-82
2022/09/15 02:29:55;;;;;;;13.98;6.00;;;;;;;;;;5057330;28;20457;-82
2022/09/15 02:32:23;;;;;;;16.10;5.90;;;;;;;;;;5056929;28;20025;-82
2022/09/15 02:34:50;;;;;;;13.52;6.40;;;;;;;;;;5075396;28;20490;-82
2022/09/15 02:37:16;;;;;;;9.30;6.53;;;;;;;;;;5075707;28;20021;-82
2022/09/15 02:39:45;;;;;;;10.18;5.80;;;;;;;;;;5075533;28;20446;-82
2022/09/15 02:42:12;;;;;;;9.93;5.95;;;;;;;;;;5074942;28;20024;-82
2022/09/15 02:44:38;;;;;;;11.55;6.43;;;;;;;;;;5074913;28;20024;-82
2022/09/15 02:47:04;;;;;;;7.13;5.38;;;;;;;;;;5057352;28;20048;-82
2022/09/15 02:49:30;;;;;;;12.13;6.30;;;;;;;;;;5074832;28;20402;-82
2022/09/15 02:51:56;;;;;;;13.70;6.63;;;;;;;;;;5075274;28;20112;-82
2022/09/15 02:54:22;;;;;;;10.63;6.30;;;;;;;;;;5056719;28;20401;-82
2022/09/15 02:56:48;;;;;;;12.80;6.35;;;;;;;;;;5075158;28;20052;-82
2022/09/15 02:59:14;;;;;;;12.85;6.20;;;;;;;;;;5056831;28;20032;-82
2022/09/15 03:01:40;;;;;;;10.75;6.53;;;;;;;;;;5056752;28;20035;-82
2022/09/15 03:04:06;;;;;;;11.25;6.35;;;;;;;;;;5074572;28;20055;-82
2022/09/15 03:06:36;;;;;;;10.00;5.65;;;;;;;;;;5056504;28;20383;-82
2022/09/15 03:09:04;;;;;;;9.18;6.10;;;;;;;;;;5056204;28;20024;-82
2022/09/15 03:11:31;;;;;;;11.30;6.65;;;;;;;;;;5056459;28;20401;-82
2022/09/15 03:13:58;;;;;;;10.35;6.30;;;;;;;;;;5081889;28;20055;-82
2022/09/15 03:16:24;;;;;;;15.85;7.32;;;;;;;;;;5076410;28;20028;-82
2022/09/15 03:18:51;;;;;;;7.47;5.60;;;;;;;;;;5076401;28;20119;-82
2022/09/15 03:21:17;;;;;;;11.93;6.07;;;;;;;;;;5094610;28;20024;-82
2022/09/15 03:23:44;;;;;;;12.30;7.22;;;;;;;;;;5094714;28;20036;-82
2022/09/15 03:26:10;;;;;;;13.73;6.70;;;;;;;;;;5094815;28;20111;-82
2022/09/15 03:28:37;;;;;;;9.57;6.30;;;;;;;;;;5094253;28;20056;-82
2022/09/15 03:31:04;;;;;;;14.77;7.03;;;;;;;;;;5094438;28;20065;-82
2022/09/15 03:33:30;;;;;;;12.57;6.88;;;;;;;;;;5094556;28;20020;-82
2022/09/15 03:35:56;;;;;;;8.98;6.03;;;;;;;;;;5075915;28;20020;-82
2022/09/15 03:38:22;;;;;;;12.95;6.70;;;;;;;;;;5094367;28;20012;-82
2022/09/15 03:40:56;;;;;;;11.48;6.47;;;;;;;;;;5076486;28;20322;-82
2022/09/15 03:43:22;;;;;;;12.70;6.63;;;;;;;;;;5076248;28;20031;-82
2022/09/15 03:45:48;;;;;;;9.77;6.43;;;;;;;;;;5094374;28;20024;-82
2022/09/15 03:48:14;;;;;;;9.85;6.25;;;;;;;;;;5076272;28;20032;-82
2022/09/15 03:50:40;;;;;;;10.85;7.25;;;;;;;;;;5075781;28;20063;-82
2022/09/15 03:53:06;;;;;;;9.70;6.18;;;;;;;;;;5094165;28;20043;-82
2022/09/15 03:55:32;;;;;;;10.75;6.25;;;;;;;;;;5094299;28;20119;-82
2022/09/15 03:57:58;;;;;;;11.50;6.80;;;;;;;;;;5094229;28;20031;-82
2022/09/15 04:00:24;;;;;;;9.52;6.45;;;;;;;;;;5076023;28;20016;-82
2022/09/15 04:02:50;;;;;;;9.75;6.28;;;;;;;;;;5094070;28;20039;-82
2022/09/15 04:05:16;;;;;;;14.50;6.28;;;;;;;;;;5075579;28;20016;-82
2022/09/15 04:07:42;;;;;;;10.48;6.00;;;;;;;;;;5094024;28;20142;-82
2022/09/15 04:10:09;;;;;;;10.57;6.18;;;;;;;;;;5093720;28;20350;-82
2022/09/15 04:12:35;;;;;;;14.65;6.70;;;;;;;;;;5093568;28;20378;-82
2022/09/15 04:15:01;;;;;;;12.32;7.03;;;;;;;;;;5113512;28;20053;-82
2022/09/15 04:17:27;;;;;;;11.65;6.20;;;;;;;;;;5114085;28;20035;-82
2022/09/15 04:19:54;;;;;;;8.43;6.07;;;;;;;;;;5113978;28;20023;-82
2022/09/15 04:22:20;;;;;;;8.43;5.70;;;;;;;;;;5113673;28;20098;-81
2022/09/15 04:24:49;;;;;;;9.98;5.70;;;;;;;;;;5113504;28;20024;-82
2022/09/15 04:27:16;;;;;;;12.45;6.47;;;;;;;;;;5113679;28;20102;-82
2022/09/15 04:29:42;;;;;;;8.38;5.78;;;;;;;;;;5113586;28;20019;-82
2022/09/15 04:32:09;;;;;;;11.18;5.75;;;;;;;;;;5113704;28;20016;-82
2022/09/15 04:34:36;;;;;;;17.55;7.35;;;;;;;;;;5113574;28;20020;-82
2022/09/15 04:37:02;;;;;;;10.27;5.18;;;;;;;;;;5113699;28;20028;-82
2022/09/15 04:39:28;;;;;;;11.07;4.97;;;;;;;;;;5095329;28;20028;-82
2022/09/15 04:41:54;;;;;;;7.95;5.43;;;;;;;;;;5095205;28;20555;-82
2022/09/15 04:44:20;;;;;;;7.20;5.10;;;;;;;;;;5113444;28;20042;-82
2022/09/15 04:46:47;;;;;;;9.98;5.03;;;;;;;;;;5102671;28;20127;-82
2022/09/15 04:49:13;;;;;;;11.80;4.82;;;;;;;;;;5092800;28;20048;-82
2022/09/15 04:51:39;;;;;;;7.38;4.72;;;;;;;;;;5093519;28;20075;-82
2022/09/15 04:54:05;;;;;;;11.95;6.10;;;;;;;;;;5093267;28;20020;-82
2022/09/15 04:56:31;;;;;;;7.32;4.72;;;;;;;;;;5092915;28;20363;-82
2022/09/15 04:58:58;;;;;;;11.95;5.20;;;;;;;;;;5109665;28;20022;-82
2022/09/15 05:01:29;;;;;;;9.13;4.45;;;;;;;;;;5113247;28;20024;-82
2022/09/15 05:03:55;;;;;;;8.15;5.00;;;;;;;;;;5113324;28;20019;-82
2022/09/15 05:06:22;;;;;;;8.73;5.30;;;;;;;;;;5113260;28;20468;-82
2022/09/15 05:08:52;;;;;;;11.70;4.95;;;;;;;;;;5113346;28;20441;-82
2022/09/15 05:11:19;;;;;;;8.82;4.38;;;;;;;;;;5113195;28;20020;-82
2022/09/15 05:13:45;;;;;;;13.85;5.57;;;;;;;;;;5113013;28;20062;-82
2022/09/15 05:16:13;;;;;;;9.35;5.68;;;;;;;;;;5113132;28;20055;-82
2022/09/15 05:18:44;;;;;;;8.98;4.80;;;;;;;;;;5113205;28;20444;-82
2022/09/15 05:21:10;;;;;;;10.43;5.00;;;;;;;;;;5113153;28;20461;-82
2022/09/15 05:23:37;;;;;;;13.55;5.03;;;;;;;;;;5113283;28;20023;-82
2022/09/15 05:26:04;;;;;;;9.00;4.28;;;;;;;;;;5113274;28;20020;-80
2022/09/15 05:28:32;;;;;;;8.45;3.58;;;;;;;;;;5113508;28;20035;-81
2022/09/15 05:30:58;;;;;;;7.97;2.80;;;;;;;;;;5113102;28;20046;-81
2022/09/15 05:33:24;;;;;;;11.13;2.67;;;;;;;;;;5094514;28;20048;-81
2022/09/15 05:35:51;;;;;;;10.77;3.20;;;;;;;;;;5094842;28;20093;-81
2022/09/15 05:38:17;;;;;;;12.68;3.03;;;;;;;;;;5116895;28;20019;-81
2022/09/15 05:40:43;;;;;;;9.98;2.83;;;;;;;;;;5117244;28;20024;-81
2022/09/15 05:43:10;;;;;;;11.48;2.63;;;;;;;;;;5117197;28;20071;-81
2022/09/15 05:45:36;;;;;;;9.82;2.75;;;;;;;;;;5117428;28;20043;-81
2022/09/15 05:48:02;;;;;;;7.65;2.53;;;;;;;;;;5117314;28;20076;-81
2022/09/15 05:50:29;;;;;;;10.98;2.58;;;;;;;;;;5117198;28;20028;-81
2022/09/15 05:52:55;;;;;;;6.82;2.38;;;;;;;;;;5117149;28;20059;-81
2022/09/15 05:55:22;;;;;;;9.77;2.33;;;;;;;;;;5116971;28;20486;-81
2022/09/15 05:57:48;;;;;;;8.27;2.70;;;;;;;;;;5116669;28;20461;-81
2022/09/15 06:00:14;;;;;;;8.85;2.22;;;;;;;;;;5116779;28;20076;-81
2022/09/15 06:02:40;;;;;;;5.45;1.88;;;;;;;;;;5117023;28;20024;-81
2022/09/15 06:05:06;;;;;;;5.95;1.85;;;;;;;;;;5116978;28;20100;-81
2022/09/15 06:07:33;;;;;;;7.55;2.00;;;;;;;;;;5117106;28;20568;-81
2022/09/15 06:09:59;;;;;;;7.43;2.92;;;;;;;;;;5098523;28;20030;-81
2022/09/15 06:12:25;;;;;;;5.18;2.20;;;;;;;;;;5116597;28;20051;-81
2022/09/15 06:14:52;;;;;;;14.55;1.85;;;;;;;;;;5116295;28;20040;-81
2022/09/15 06:17:18;;;;;;;14.25;2.22;;;;;;;;;;5116460;28;20076;-81
2022/09/15 06:19:44;;;;;;;10.52;1.80;;;;;;;;;;5116313;28;20385;-81
2022/09/15 06:22:10;;;;;;;5.88;2.30;;;;;;;;;;5115292;28;20016;-81
2022/09/15 06:24:36;;;;;;;8.68;1.73;;;;;;;;;;5096230;28;20066;-82
2022/09/15 06:27:02;;;;;;;7.25;1.48;;;;;;;;;;5116273;28;20038;-81
2022/09/15 06:29:30;;;;;;;12.00;2.22;;;;;;;;;;5097648;28;20384;-81
2022/09/15 06:32:01;;;;;;;6.63;1.60;;;;;;;;;;5097227;28;20023;-81
2022/09/15 06:34:27;;;;;;;8.38;1.80;;;;;;;;;;5116176;28;20304;-81
2022/09/15 06:36:53;;;;;;;8.77;1.88;;;;;;;;;;5115871;28;20027;-81
2022/09/15 06:39:19;;;;;;;6.05;2.60;;;;;;;;;;5097494;28;20127;-81
2022/09/15 06:41:45;;;;;;;12.60;2.50;;;;;;;;;;5115793;28;20450;-81
2022/09/15 06:44:11;;;;;;;8.13;2.38;;;;;;;;;;5115588;28;20039;-81
2022/09/15 06:46:37;;;;;;;6.60;1.80;;;;;;;;;;5087981;28;20092;-81
2022/09/15 06:49:03;;;;;;;5.15;1.70;;;;;;;;;;5086252;28;20498;-81
2022/09/15 06:51:34;;;;;;;5.72;1.80;;;;;;;;;;5100371;28;20110;-81
2022/09/15 06:54:01;;;;;;;5.40;1.67;;;;;;;;;;5107276;28;20081;-81
2022/09/15 06:56:28;;;;;;;7.65;1.73;;;;;;;;;;5115912;28;20047;-81
2022/09/15 06:58:57;;;;;;;7.80;1.55;;;;;;;;;;5115346;28;20461;-81
2022/09/15 07:01:24;;;;;;;4.93;1.40;;;;;;;;;;5115544;28;20349;-81
2022/09/15 07:03:50;;;;;;;8.68;1.50;;;;;;;;;;5115170;28;20043;-82
2022/09/15 07:06:17;;;;;;;5.32;1.33;;;;;;;;;;5114008;28;20019;-81
2022/09/15 07:08:45;;;;;;;4.95;1.20;;;;;;;;;;5115321;28;20023;-81
2022/09/15 07:11:11;;;;;;;2.92;1.10;;;;;;;;;;5110764;28;20099;-82
2022/09/15 07:13:37;;;;;;;3.80;1.00;;;;;;;;;;5076688;28;20454;-81
2022/09/15 07:16:04;;;;;;;14.63;1.83;;;;;;;;;;5094758;28;20025;-81
2022/09/15 07:18:31;;;;;;;5.70;1.13;;;;;;;;;;5094849;28;20067;-81
2022/09/15 07:21:02;;;;;;;6.38;1.45;;;;;;;;;;5096839;28;20028;-81
2022/09/15 07:23:28;;;;;;;12.45;1.17;;;;;;;;;;5115048;28;20168;-81
2022/09/15 07:26:08;;;;;;;3.42;0.85;;;;;;;;;;5114880;28;20031;-82
2022/09/15 07:28:34;;;;;;;7.18;1.15;;;;;;;;;;5114985;28;20333;-81
2022/09/15 07:31:00;;;;;;;6.60;1.13;;;;;;;;;;5115069;28;20201;-81
2022/09/15 07:33:27;;;;;;;6.80;1.15;;;;;;;;;;5114867;28;20020;-80
2022/09/15 07:35:53;;;;;;;4.38;0.98;;;;;;;;;;5105261;28;20065;-80
2022/09/15 07:38:19;;;;;;;6.20;1.35;;;;;;;;;;5094341;28;20153;-77
2022/09/15 07:40:47;;;;;;;8.32;1.48;;;;;;;;;;5093697;28;20028;-79
2022/09/15 07:43:14;;;;;;;5.53;1.15;;;;;;;;;;5093291;28;20138;-77
2022/09/15 07:45:40;;;;;;;14.02;1.27;;;;;;;;;;5093511;28;20028;-79
2022/09/15 07:48:06;;;;;;;10.95;1.58;;;;;;;;;;5075866;28;20024;-79
2022/09/15 07:50:32;;;;;;;8.02;1.48;;;;;;;;;;5093816;28;20047;-80
2022/09/15 07:52:58;;;;;;;10.65;1.42;;;;;;;;;;5084076;28;20354;-81
2022/09/15 07:55:24;;;;;;;7.15;1.02;;;;;;;;;;5114801;28;20027;-82
2022/09/15 07:57:57;;;;;;;6.00;1.10;;;;;;;;;;5114554;28;20027;-81
2022/09/15 08:00:23;;;;;;;7.97;1.10;;;;;;;;;;5114013;28;20095;-81
2022/09/15 08:02:49;;;;;;;6.35;1.08;;;;;;;;;;5114446;28;20020;-81
2022/09/15 08:05:15;;;;;;;8.10;1.25;;;;;;;;;;5114189;28;20485;-81
2022/09/15 08:07:41;;;;;;;9.23;1.00;;;;;;;;;;5114097;28;20405;-83
2022/09/15 08:10:08;;;;;;;5.25;1.33;;;;;;;;;;5114559;28;20016;-81
2022/09/15 08:12:35;;;;;;;4.10;0.85;;;;;;;;;;5096688;28;20024;-79
2022/09/15 08:15:01;;;;;;;7.72;0.85;;;;;;;;;;5094031;28;20047;-81
2022/09/15 08:17:27;;;;;;;6.60;0.77;;;;;;;;;;5093618;28;20032;-81
2022/09/15 08:19:53;;;;;;;5.57;1.10;;;;;;;;;;5075376;28;20031;-82
2022/09/15 08:22:19;;;;;;;5.28;1.30;;;;;;;;;;5096724;28;20023;-81
2022/09/15 08:24:45;;;;;;;6.93;0.88;;;;;;;;;;5095498;28;20385;-81
2022/09/15 08:27:11;;;;;;;5.90;1.10;;;;;;;;;;5104718;28;20039;-81
2022/09/15 08:29:37;;;;;;;4.75;0.73;;;;;;;;;;5095123;28;20024;-81
2022/09/15 08:32:04;;;;;;;7.25;1.27;;;;;;;;;;5095429;28;20024;-81
2022/09/15 08:34:30;;;;;;;7.38;0.80;;;;;;;;;;5113884;28;20472;-81
2022/09/15 08:36:56;;;;;;;3.78;0.90;;;;;;;;;;5095141;28;20130;-80
2022/09/15 08:39:22;;;;;;;4.45;1.00;;;;;;;;;;5113670;28;20027;-79
2022/09/15 08:41:50;;;;;;;7.38;0.93;;;;;;;;;;5113631;28;20105;-80
2022/09/15 08:44:23;;;;;;;7.68;1.10;;;;;;;;;;5113668;28;20032;-80
2022/09/15 08:46:53;;;;;;;5.97;0.77;;;;;;;;;;5102285;28;20064;-80
2022/09/15 08:49:26;;;;;;;8.60;1.10;;;;;;;;;;5093000;28;20070;-80
2022/09/15 08:51:53;;;;;;;5.82;0.95;;;;;;;;;;5093197;28;20028;-80
2022/09/15 08:54:26;;;;;;;4.85;0.90;;;;;;;;;;5092933;28;20040;-81
2022/09/15 08:56:52;;;;;;;5.28;0.80;;;;;;;;;;5092989;28;20438;-80
2022/09/15 08:59:20;;;;;;;3.38;0.70;;;;;;;;;;5092798;28;20047;-80
2022/09/15 09:01:51;;;;;;;8.02;0.80;;;;;;;;;;5093033;28;20035;-80
2022/09/15 09:04:26;;;;;;;2.27;0.50;;;;;;;;;;5092834;28;20016;-80
2022/09/15 09:07:02;;;;;;;1.52;0.50;;;;;;;;;;5074470;28;20370;-79
2022/09/15 09:09:37;;;;;;;2.97;0.60;;;;;;;;;;5092796;28;20031;-79
2022/09/15 09:12:21;;;;;;;6.22;0.50;;;;;;;;;;5091828;28;20020;-80
2022/09/15 09:14:50;;;;;;;3.47;0.70;;;;;;;;;;5092274;28;20052;-80
2022/09/15 09:17:30;;;;;;;3.35;0.52;;;;;;;;;;5092675;28;20035;-82
2022/09/15 09:19:56;;;;;;;4.38;0.90;;;;;;;;;;5103958;28;20479;-81
2022/09/15 09:22:24;;;;;;;4.53;1.10;;;;;;;;;;5113034;28;20028;-81
2022/09/15 09:24:52;;;;;;;5.72;1.00;;;;;;;;;;5112861;28;20019;-81
2022/09/15 09:27:20;;;;;;;8.27;1.00;;;;;;;;;;5113061;28;20032;-81
2022/09/15 09:29:50;;;;;;;5.35;0.80;;;;;;;;;;5094583;28;20458;-82
2022/09/15 09:32:19;;;;;;;6.82;0.73;;;;;;;;;;5112659;28;20064;-82
2022/09/15 09:34:54;;;;;;;6.45;1.00;;;;;;;;;;5092622;28;20032;-79
2022/09/15 09:37:20;;;;;;;7.22;0.85;;;;;;;;;;5112892;28;20026;-80
2022/09/15 09:39:47;;;;;;;3.60;0.70;;;;;;;;;;5112731;28;20030;-80
2022/09/15 09:42:17;;;;;;;5.40;0.75;;;;;;;;;;5112899;28;20024;-80
2022/09/15 09:44:43;;;;;;;8.82;0.70;;;;;;;;;;5112968;28;20432;-80
2022/09/15 09:47:11;;;;;;;8.98;1.20;;;;;;;;;;5094285;28;20034;-86
2022/09/15 09:49:43;;;;;;;6.97;0.82;;;;;;;;;;5112634;28;20016;-80
2022/09/15 09:52:11;;;;;;;5.95;0.75;;;;;;;;;;5112964;28;20119;-82
2022/09/15 09:54:37;;;;;;;5.80;0.65;;;;;;;;;;5113147;28;20499;-82
2022/09/15 09:57:12;;;;;;;6.82;1.10;;;;;;;;;;5094452;28;20464;-82
2022/09/15 09:59:45;;;;;;;5.38;0.82;;;;;;;;;;5112532;28;20135;-82
2022/09/15 10:02:12;;;;;;;8.23;1.00;;;;;;;;;;5112781;28;20396;-80
2022/09/15 10:04:38;;;;;;;6.57;1.13;;;;;;;;;;5112644;28;20031;-82
2022/09/15 10:07:05;;;;;;;7.10;1.00;;;;;;;;;;5111409;28;20113;-81
2022/09/15 10:09:31;;;;;;;6.95;0.80;;;;;;;;;;5112366;28;20390;-81
2022/09/15 10:11:59;;;;;;;3.65;0.77;;;;;;;;;;5107839;28;20030;-82
2022/09/15 10:14:27;;;;;;;4.80;0.80;;;;;;;;;;5098591;28;20386;-82
2022/09/15 10:16:57;;;;;;;7.47;1.88;;;;;;;;;;5112375;28;20034;-82
2022/09/15 10:19:23;;;;;;;6.93;0.80;;;;;;;;;;5112355;28;20381;-82
2022/09/15 10:21:49;;;;;;;8.00;1.33;;;;;;;;;;5112482;28;20031;-82
2022/09/15 10:24:27;;;;;;;5.68;0.70;;;;;;;;;;5115814;28;20020;-82
2022/09/15 10:27:05;;;;;;;5.95;1.15;;;;;;;;;;5116095;28;20458;-82
2022/09/15 10:29:37;;;;;;;8.10;1.17;;;;;;;;;;5116166;28;20020;-82
2022/09/15 10:32:35;;;;;;;6.28;0.90;;;;;;;;;;5097841;28;20347;-82
2022/09/15 10:35:15;;;;;;;7.68;1.00;;;;;;;;;;5067325;28;20039;-82
2022/09/15 10:37:44;;;;;;;5.85;1.00;;;;;;;;;;5116001;28;20038;-82
2022/09/15 10:40:19;;;;;;;4.10;0.73;;;;;;;;;;5115904;28;20019;-82
2022/09/15 10:42:51;;;;;;;5.70;1.38;;;;;;;;;;5116054;28;20450;-82
2022/09/15 10:45:32;;;;;;;6.00;0.93;;;;;;;;;;5115755;28;20023;-81
2022/09/15 10:48:01;;;;;;;6.33;0.87;;;;;;;;;;5107841;28;20035;-81
2022/09/15 10:50:50;;;;;;;8.45;1.58;;;;;;;;;;5115813;28;20703;-81
2022/09/15 10:53:19;;;;;;;4.85;0.90;;;;;;;;;;5102549;28;20040;-83
2022/09/15 10:55:48;;;;;;;6.55;0.80;;;;;;;;;;5115822;28;20073;-83
2022/09/15 10:58:32;;;;;;;6.25;0.77;;;;;;;;;;5096220;28;20429;-82
2022/09/15 11:01:30;;;;;;;3.28;0.82;;;;;;;;;;5115718;28;20350;-82
2022/09/15 11:04:14;;;;;;;5.93;0.65;;;;;;;;;;5060090;28;20099;-82
2022/09/15 11:06:59;;;;;;;8.00;0.85;;;;;;;;;;5115364;28;20034;-82
2022/09/15 11:09:28;;;;;;;7.93;1.10;;;;;;;;;;5097348;28;20482;-82
2022/09/15 11:11:57;;;;;;;4.65;0.70;;;;;;;;;;5115119;28;20062;-81
2022/09/15 11:14:42;;;;;;;4.68;0.70;;;;;;;;;;5115071;28;20042;-81
2022/09/15 11:17:30;;;;;;;8.00;1.55;;;;;;;;;;5114964;28;20039;-81
2022/09/15 11:20:06;;;;;;;6.53;0.80;;;;;;;;;;5115110;28;20031;-81
2022/09/15 11:22:38;;;;;;;9.13;1.15;;;;;;;;;;5115325;28;20031;-80
2022/09/15 11:25:15;;;;;;;8.50;1.10;;;;;;;;;;5115362;28;20030;-81
2022/09/15 11:27:46;;;;;;;6.72;1.08;;;;;;;;;;5114979;28;20032;-81
2022/09/15 11:30:17;;;;;;;6.30;1.00;;;;;;;;;;5114987;28;20016;-81
2022/09/15 11:32:45;;;;;;;5.45;0.80;;;;;;;;;;5090284;28;20108;-82
2022/09/15 11:35:17;;;;;;;3.50;0.70;;;;;;;;;;5093356;28;20039;-81
2022/09/15 11:37:46;;;;;;;9.02;1.08;;;;;;;;;;5105774;28;20128;-81
2022/09/15 11:40:21;;;;;;;7.97;0.90;;;;;;;;;;5114530;28;20024;-80
2022/09/15 11:43:13;;;;;;;6.47;1.05;;;;;;;;;;5114378;28;20348;-80
2022/09/15 11:45:39;;;;;;;;;;;;;;;;;;5100415;28;20059;-81
2022/09/15 11:48:12;;;;;;;5.65;0.93;;;;;;;;;;5096052;28;19962;-78
2022/09/15 11:50:40;;;;;;;9.55;1.00;;;;;;;;;;5114367;28;20035;-79
2022/09/15 11:53:15;;;;;;;4.57;0.85;;;;;;;;;;5099211;28;20028;-79
2022/09/15 11:55:43;;;;;;;8.85;1.23;;;;;;;;;;5093944;28;20074;-79
2022/09/15 11:58:17;;;;;;;9.23;1.27;;;;;;;;;;5094078;28;20024;-79
2022/09/15 12:00:48;;;;;;;10.88;0.80;;;;;;;;;;5093919;28;20020;-81
2022/09/15 12:03:21;;;;;;;5.85;1.02;;;;;;;;;;5090868;28;20425;-80
2022/09/15 12:05:59;;;;;;;4.97;0.77;;;;;;;;;;5114296;28;20098;-81
2022/09/15 12:08:44;;;;;;;12.85;0.80;;;;;;;;;;5078043;28;20493;-81
2022/09/15 12:11:16;;;;;;;7.25;1.20;;;;;;;;;;5092614;28;20028;-81
2022/09/15 12:13:42;;;;;;;2.90;0.50;;;;;;;;;;5096765;28;20063;-81
2022/09/15 12:16:09;;;;;;;7.63;0.82;;;;;;;;;;5091049;28;20032;-80
2022/09/15 12:18:40;;;;;;;5.80;0.90;;;;;;;;;;5112271;28;20381;-80
2022/09/15 12:21:15;;;;;;;13.43;0.85;;;;;;;;;;5113716;28;20027;-81
2022/09/15 12:23:43;;;;;;;3.90;0.73;;;;;;;;;;5110999;28;20081;-80
2022/09/15 12:26:14;;;;;;;6.30;0.90;;;;;;;;;;5091737;28;20057;-80
2022/09/15 12:28:41;;;;;;;5.35;0.73;;;;;;;;;;5113717;28;20346;-81
2022/09/15 12:31:13;;;;;;;2.33;0.50;;;;;;;;;;5113512;28;20112;-82
2022/09/15 12:33:43;;;;;;;6.97;1.23;;;;;;;;;;5113380;28;20024;-80
2022/09/15 12:36:27;;;;;;;3.38;0.43;;;;;;;;;;5114146;28;20382;-83
2022/09/15 12:38:54;;;;;;;3.72;0.60;;;;;;;;;;5113824;28;20028;-79
2022/09/15 12:41:20;;;;;;;5.05;0.70;;;;;;;;;;5095950;28;20386;-80
2022/09/15 12:44:11;;;;;;;5.57;0.68;;;;;;;;;;5075056;28;20466;-79
2022/09/15 12:46:37;;;;;;;1.38;0.35;;;;;;;;;;5096772;28;20024;-81
2022/09/15 12:49:03;;;;;;;9.70;0.70;;;;;;;;;;5093220;28;20315;-81
2022/09/15 12:51:30;;;;;;;11.52;0.70;;;;;;;;;;5106204;28;20039;-78
2022/09/15 12:53:58;;;;;;;2.70;0.50;;;;;;;;;;5112897;28;20039;-77
2022/09/15 12:56:28;;;;;;;6.28;0.60;;;;;;;;;;5112849;28;20047;-78
2022/09/15 12:58:54;;;;;;;4.30;0.75;;;;;;;;;;5112684;28;20015;-79
2022/09/15 13:01:23;;;;;;;3.08;0.98;;;;;;;;;;5112222;28;20019;-79
2022/09/15 13:03:50;;;;;;;3.97;0.63;;;;;;;;;;5112736;28;20031;-79
2022/09/15 13:06:16;;;;;;;4.65;0.70;;;;;;;;;;5112714;28;20530;-79
2022/09/15 13:08:44;;;;;;;3.03;0.85;;;;;;;;;;5112947;28;20028;-79
2022/09/15 13:11:16;;;;;;;4.15;0.77;;;;;;;;;;5112495;28;20036;-79
2022/09/15 13:13:46;;;;;;;5.95;1.00;;;;;;;;;;5112405;28;20044;-78
2022/09/15 13:16:14;;;;;;;3.60;0.70;;;;;;;;;;5112729;28;20023;-79
2022/09/15 13:18:41;;;;;;;6.40;0.80;;;;;;;;;;5112658;28;20027;-79
2022/09/15 13:21:12;;;;;;;5.88;0.70;;;;;;;;;;5112589;28;20023;-78
2022/09/15 13:23:40;;;;;;;8.23;0.70;;;;;;;;;;5094693;28;20032;-79
2022/09/15 13:26:08;;;;;;;4.97;0.77;;;;;;;;;;5092265;28;20024;-79
2022/09/15 13:28:34;;;;;;;8.32;1.08;;;;;;;;;;5105159;28;20035;-79
2022/09/15 13:31:03;;;;;;;9.80;0.90;;;;;;;;;;5094092;28;20393;-79
2022/09/15 13:33:59;;;;;;;4.32;0.70;;;;;;;;;;5088301;28;20016;-79
2022/09/15 13:36:31;;;;;;;7.93;0.70;;;;;;;;;;5004967;28;20085;-79
2022/09/15 13:39:04;;;;;;;2.47;0.60;;;;;;;;;;5095218;28;20012;-79
2022/09/15 13:41:40;;;;;;;4.22;0.70;;;;;;;;;;5112238;28;20047;-80
2022/09/15 13:44:12;;;;;;;5.88;0.70;;;;;;;;;;5112244;28;20390;-80
2022/09/15 13:46:57;;;;;;;3.63;0.75;;;;;;;;;;5092413;28;20019;-80
2022/09/15 13:49:42;;;;;;;11.98;1.10;;;;;;;;;;5112353;28;20027;-79
2022/09/15 13:52:16;;;;;;;2.78;0.77;;;;;;;;;;5112694;28;20024;-80
2022/09/15 13:55:05;;;;;;;8.45;0.80;;;;;;;;;;5112205;28;20401;-80
2022/09/15 13:57:34;;;;;;;8.35;0.75;;;;;;;;;;5094375;28;20062;-80
2022/09/15 14:00:13;;;;;;;6.40;0.95;;;;;;;;;;5116318;28;20481;-80
2022/09/15 14:02:42;;;;;;;5.00;0.90;;;;;;;;;;5116089;28;20096;-80
2022/09/15 14:05:08;;;;;;;2.58;0.70;;;;;;;;;;5116430;28;20089;-80
2022/09/15 14:07:34;;;;;;;8.63;1.02;;;;;;;;;;5115823;28;20038;-79
2022/09/15 14:10:03;;;;;;;4.00;0.80;;;;;;;;;;5116209;28;20020;-80
2022/09/15 14:12:30;;;;;;;8.45;1.05;;;;;;;;;;5116046;28;20012;-80
2022/09/15 14:14:57;;;;;;;5.28;0.88;;;;;;;;;;5115800;28;20048;-80
2022/09/15 14:17:27;;;;;;;6.00;0.80;;;;;;;;;;5116118;28;20377;-80
2022/09/15 14:19:54;;;;;;;3.03;1.13;;;;;;;;;;5115929;28;20349;-80
2022/09/15 14:22:20;;;;;;;3.28;0.70;;;;;;;;;;5110937;28;20061;-81
2022/09/15 14:24:47;;;;;;;8.27;0.80;;;;;;;;;;5107269;28;20495;-81
2022/09/15 14:27:19;;;;;;;5.88;0.80;;;;;;;;;;5104360;28;20020;-80
2022/09/15 14:29:47;;;;;;;;;;;;;;;;;;5097694;28;20079;-78
2022/09/15 14:32:14;;;;;;;7.47;1.02;;;;;;;;;;5115353;28;20273;-80
2022/09/15 14:34:41;;;;;;;12.95;1.75;;;;;;;;;;5115231;28;20419;-79
2022/09/15 14:37:12;;;;;;;5.93;0.65;;;;;;;;;;5096005;28;20031;-79
2022/09/15 14:39:39;;;;;;;3.45;0.70;;;;;;;;;;5115130;28;20026;-79
2022/09/15 14:42:28;;;;;;;3.15;0.60;;;;;;;;;;5115165;28;20058;-79
2022/09/15 14:44:54;;;;;;;6.55;0.80;;;;;;;;;;5115759;28;20111;-81
2022/09/15 14:47:22;;;;;;;4.85;0.70;;;;;;;;;;5115403;28;20031;-80
2022/09/15 14:49:48;;;;;;;5.55;0.60;;;;;;;;;;5095269;28;20020;-80
2022/09/15 14:52:23;;;;;;;4.18;0.57;;;;;;;;;;5103410;28;20035;-81